createdAt,value
2018-02-22T00:01:02.679Z,24.33
2018-02-22T00:03:30.256Z,25.35
2018-02-22T00:05:57.821Z,27.55
2018-02-22T00:08:25.414Z,25.15
2018-02-22T00:10:53.001Z,25.08
2018-02-22T00:13:21.371Z,26.27
2018-02-22T00:15:49.718Z,25.23
2018-02-22T00:18:17.346Z,25.17
2018-02-22T00:20:44.922Z,26.42
2018-02-22T00:23:12.492Z,25.55
2018-02-22T00:25:40.088Z,26.77
2018-02-22T00:28:08.427Z,25.45
2018-02-22T00:30:36.020Z,25.37
2018-02-22T00:33:03.586Z,26.75
2018-02-22T00:35:31.952Z,25.08
2018-02-22T00:37:59.529Z,23.33
2018-02-22T00:40:27.897Z,25.83
2018-02-22T00:42:55.490Z,24.33
2018-02-22T00:45:23.062Z,24.85
2018-02-22T00:47:50.668Z,24.10
2018-02-22T00:50:18.247Z,25.60
2018-02-22T00:52:46.622Z,23.80
2018-02-22T00:55:14.202Z,22.37
2018-02-22T00:57:42.543Z,25.50
2018-02-22T01:00:10.143Z,23.23
2018-02-22T01:02:37.710Z,23.62
2018-02-22T01:05:05.305Z,22.85
2018-02-22T01:07:32.884Z,25.75
2018-02-22T01:10:00.456Z,23.30
2018-02-22T01:12:28.055Z,22.33
2018-02-22T01:14:55.634Z,23.20
2018-02-22T01:17:23.230Z,23.83
2018-02-22T01:19:50.831Z,22.85
2018-02-22T01:22:18.417Z,21.27
2018-02-22T01:24:46.024Z,23.27
2018-02-22T01:27:14.370Z,23.55
2018-02-22T01:29:41.966Z,24.58
2018-02-22T01:32:10.320Z,25.23
2018-02-22T01:34:37.933Z,24.33
2018-02-22T01:37:05.522Z,23.50
2018-02-22T01:39:33.110Z,24.10
2018-02-22T01:42:00.707Z,22.42
2018-02-22T01:44:28.294Z,23.25
2018-02-22T01:46:55.894Z,24.10
2018-02-22T01:49:23.493Z,23.87
2018-02-22T01:51:51.078Z,22.25
2018-02-22T01:54:18.637Z,21.30
2018-02-22T01:56:46.246Z,22.75
2018-02-22T01:59:13.859Z,24.92
2018-02-22T02:01:41.455Z,22.52
2018-02-22T02:04:09.031Z,23.20
2018-02-22T02:06:37.375Z,21.65
2018-02-22T02:09:04.968Z,23.90
2018-02-22T02:11:33.327Z,23.25
2018-02-22T02:14:00.934Z,23.30
2018-02-22T02:16:28.515Z,22.05
2018-02-22T02:18:56.124Z,22.30
2018-02-22T02:21:24.460Z,22.95
2018-02-22T02:23:52.030Z,22.55
2018-02-22T02:26:19.637Z,24.05
2018-02-22T02:28:47.989Z,22.55
2018-02-22T02:31:15.585Z,23.25
2018-02-22T02:33:43.162Z,22.77
2018-02-22T02:36:10.750Z,21.80
2018-02-22T02:38:38.325Z,22.00
2018-02-22T02:41:05.931Z,22.98
2018-02-22T02:43:33.514Z,22.48
2018-02-22T02:46:01.104Z,23.15
2018-02-22T02:48:28.692Z,22.60
2018-02-22T02:50:57.042Z,22.67
2018-02-22T02:53:24.673Z,23.25
2018-02-22T02:55:52.235Z,23.95
2018-02-22T02:58:19.816Z,22.00
2018-02-22T03:00:47.415Z,23.23
2018-02-22T03:03:15.767Z,20.85
2018-02-22T03:05:43.346Z,21.37
2018-02-22T03:08:11.708Z,22.50
2018-02-22T03:10:39.298Z,23.40
2018-02-22T03:13:06.905Z,21.10
2018-02-22T03:18:08.482Z,21.50
2018-02-22T03:20:36.064Z,21.90
2018-02-22T03:23:03.630Z,22.02
2018-02-22T03:25:31.985Z,21.05
2018-02-22T03:27:59.555Z,23.17
2018-02-22T03:30:27.165Z,22.33
2018-02-22T03:32:54.735Z,20.45
2018-02-22T03:35:22.348Z,20.65
2018-02-22T03:37:50.703Z,19.10
2018-02-22T03:40:18.274Z,22.13
2018-02-22T03:42:45.867Z,21.48
2018-02-22T03:45:13.478Z,21.25
2018-02-22T03:47:41.067Z,20.95
2018-02-22T03:50:09.412Z,20.30
2018-02-22T03:52:37.014Z,20.73
2018-02-22T03:55:05.365Z,19.25
2018-02-22T03:57:32.967Z,19.60
2018-02-22T04:00:00.565Z,22.80
2018-02-22T04:02:28.137Z,20.02
2018-02-22T04:04:55.751Z,20.88
2018-02-22T04:07:23.356Z,21.85
2018-02-22T04:09:50.967Z,21.75
2018-02-22T04:12:18.562Z,19.05
2018-02-22T04:14:46.142Z,21.27
2018-02-22T04:17:13.734Z,20.60
2018-02-22T04:19:42.075Z,21.52
2018-02-22T04:22:09.685Z,19.62
2018-02-22T04:24:37.276Z,20.85
2018-02-22T04:27:04.841Z,20.90
2018-02-22T04:29:32.440Z,21.48
2018-02-22T04:32:00.779Z,20.33
2018-02-22T04:34:28.391Z,19.10
2018-02-22T04:36:56.722Z,26.37
2018-02-22T04:39:24.310Z,20.00
2018-02-22T04:41:51.892Z,21.20
2018-02-22T04:44:20.231Z,18.98
2018-02-22T04:46:47.838Z,21.90
2018-02-22T04:49:15.405Z,22.08
2018-02-22T04:51:43.009Z,19.90
2018-02-22T04:54:10.580Z,23.05
2018-02-22T04:56:38.177Z,22.00
2018-02-22T04:59:05.746Z,22.20
2018-02-22T05:01:33.314Z,20.30
2018-02-22T05:04:00.911Z,20.25
2018-02-22T05:06:28.501Z,22.50
2018-02-22T05:08:56.880Z,21.50
2018-02-22T05:11:25.215Z,21.92
2018-02-22T05:13:52.810Z,22.65
2018-02-22T05:16:20.387Z,22.17
2018-02-22T05:18:48.762Z,20.98
2018-02-22T05:21:17.098Z,25.40
2018-02-22T05:23:44.696Z,22.70
2018-02-22T05:26:13.161Z,20.35
2018-02-22T05:28:41.521Z,22.50
2018-02-22T05:31:09.118Z,22.48
2018-02-22T05:33:37.472Z,23.50
2018-02-22T05:36:05.071Z,23.17
2018-02-22T05:38:32.763Z,23.52
2018-02-22T05:41:00.380Z,22.20
2018-02-22T05:43:28.740Z,23.00
2018-02-22T05:45:56.329Z,24.67
2018-02-22T05:48:23.943Z,24.25
2018-02-22T05:50:51.551Z,23.27
2018-02-22T05:53:19.136Z,23.65
2018-02-22T05:55:46.733Z,25.02
2018-02-22T05:58:14.316Z,23.20
2018-02-22T06:00:42.688Z,25.08
2018-02-22T06:03:11.032Z,23.77
2018-02-22T06:05:38.636Z,23.50
2018-02-22T06:08:06.975Z,23.30
2018-02-22T06:10:34.556Z,25.20
2018-02-22T06:13:02.158Z,24.17
2018-02-22T06:15:29.748Z,23.58
2018-02-22T06:17:57.346Z,24.58
2018-02-22T06:20:25.695Z,24.63
2018-02-22T06:22:53.325Z,22.45
2018-02-22T06:25:20.893Z,22.23
2018-02-22T06:27:48.476Z,24.27
2018-02-22T06:30:16.075Z,26.02
2018-02-22T06:32:44.428Z,23.27
2018-02-22T06:35:12.030Z,23.80
2018-02-22T06:37:39.595Z,25.40
2018-02-22T06:40:07.162Z,24.45
2018-02-22T06:42:34.783Z,24.48
2018-02-22T06:45:03.134Z,25.37
2018-02-22T06:47:30.754Z,24.02
2018-02-22T06:49:58.368Z,23.60
2018-02-22T06:52:25.962Z,24.37
2018-02-22T06:54:53.553Z,22.95
2018-02-22T06:57:21.245Z,23.60
2018-02-22T06:59:49.614Z,23.45
2018-02-22T07:02:17.182Z,24.12
2018-02-22T07:04:44.800Z,26.10
2018-02-22T07:07:12.383Z,24.77
2018-02-22T07:09:39.972Z,23.70
2018-02-22T07:12:07.578Z,24.42
2018-02-22T07:14:35.180Z,25.20
2018-02-22T07:17:02.773Z,23.67
2018-02-22T07:19:31.137Z,21.55
2018-02-22T07:21:58.726Z,22.85
2018-02-22T07:24:26.299Z,24.45
2018-02-22T07:26:53.943Z,22.00
2018-02-22T07:29:21.474Z,23.60
2018-02-22T07:31:49.046Z,26.05
2018-02-22T07:34:17.420Z,24.45
2018-02-22T07:36:45.770Z,23.08
2018-02-22T07:39:13.439Z,23.87
2018-02-22T07:41:41.001Z,24.92
2018-02-22T07:44:08.580Z,23.62
2018-02-22T07:46:36.933Z,25.23
2018-02-22T07:49:04.507Z,25.33
2018-02-22T07:51:32.115Z,23.87
2018-02-22T07:53:59.696Z,24.90
2018-02-22T07:56:28.110Z,25.88
2018-02-22T07:58:55.687Z,26.30
2018-02-22T08:01:24.026Z,24.45
2018-02-22T08:03:51.636Z,26.48
2018-02-22T08:06:19.216Z,23.12
2018-02-22T08:08:46.844Z,23.30
2018-02-22T08:11:15.193Z,26.85
2018-02-22T08:13:42.765Z,27.05
2018-02-22T08:16:10.377Z,25.15
2018-02-22T08:18:38.007Z,27.27
2018-02-22T08:21:06.352Z,25.77
2018-02-22T08:23:33.963Z,24.02
2018-02-22T08:26:01.545Z,25.73
2018-02-22T08:28:29.117Z,26.27
2018-02-22T08:30:56.723Z,27.67
2018-02-22T08:33:25.079Z,24.23
2018-02-22T08:35:52.659Z,25.70
2018-02-22T08:38:21.023Z,26.55
2018-02-22T08:40:48.596Z,27.75
2018-02-22T08:43:16.949Z,26.20
2018-02-22T08:45:44.626Z,23.40
2018-02-22T08:48:12.238Z,23.15
2018-02-22T08:50:39.838Z,23.30
2018-02-22T08:53:07.425Z,23.13
2018-02-22T08:55:35.080Z,25.23
2018-02-22T08:58:03.434Z,22.83
2018-02-22T09:00:31.070Z,24.80
2018-02-22T09:02:58.684Z,21.07
2018-02-22T09:05:26.288Z,21.00
2018-02-22T09:07:53.924Z,21.03
2018-02-22T09:10:21.520Z,22.02
2018-02-22T09:12:49.156Z,19.80
2018-02-22T09:15:16.738Z,20.20
2018-02-22T09:17:44.363Z,24.13
2018-02-22T09:20:11.961Z,20.90
2018-02-22T09:22:39.560Z,19.47
2018-02-22T09:25:07.948Z,20.57
2018-02-22T09:27:35.545Z,20.20
2018-02-22T09:30:03.141Z,23.20
2018-02-22T09:32:30.729Z,20.27
2018-02-22T09:34:59.098Z,19.40
2018-02-22T09:37:26.650Z,17.40
2018-02-22T09:39:54.255Z,19.67
2018-02-22T09:42:21.844Z,18.73
2018-02-22T09:44:49.405Z,18.37
2018-02-22T09:47:16.971Z,18.87
2018-02-22T09:49:44.558Z,19.00
2018-02-22T09:52:12.140Z,19.97
2018-02-22T09:54:39.735Z,18.97
2018-02-22T09:57:07.311Z,18.60
2018-02-22T09:59:34.895Z,17.87
2018-02-22T10:02:02.495Z,19.10
2018-02-22T10:04:30.072Z,17.50
2018-02-22T10:06:57.640Z,19.33
2018-02-22T10:09:25.217Z,17.73
2018-02-22T10:11:52.824Z,18.10
2018-02-22T10:14:20.442Z,16.40
2018-02-22T10:16:48.030Z,20.13
2018-02-22T10:19:16.372Z,18.10
2018-02-22T10:21:43.949Z,18.40
2018-02-22T10:24:11.552Z,18.97
2018-02-22T10:26:39.138Z,16.80
2018-02-22T10:29:06.739Z,18.07
2018-02-22T10:31:34.324Z,18.07
2018-02-22T10:34:01.897Z,18.53
2018-02-22T10:36:29.505Z,18.13
2018-02-22T10:38:57.087Z,18.63
2018-02-22T10:41:25.494Z,19.60
2018-02-22T10:43:53.069Z,16.33
2018-02-22T10:46:20.638Z,17.73
2018-02-22T10:48:48.263Z,18.00
2018-02-22T10:51:15.831Z,17.57
2018-02-22T10:53:43.407Z,18.37
2018-02-22T10:56:10.996Z,16.50
2018-02-22T10:58:38.562Z,19.30
2018-02-22T11:01:11.868Z,21.93
2018-02-22T11:03:39.464Z,17.90
2018-02-22T11:06:07.067Z,16.07
2018-02-22T11:08:34.642Z,16.63
2018-02-22T11:11:02.194Z,17.73
2018-02-22T11:13:29.789Z,20.17
2018-02-22T11:15:57.381Z,18.50
2018-02-22T11:18:24.994Z,17.90
2018-02-22T11:20:53.328Z,19.00
2018-02-22T11:23:20.928Z,17.27
2018-02-22T11:25:48.524Z,17.57
2018-02-22T11:28:16.095Z,18.10
2018-02-22T11:30:43.763Z,18.43
2018-02-22T11:33:11.468Z,18.53
2018-02-22T11:35:39.828Z,16.23
2018-02-22T11:38:07.411Z,18.27
2018-02-22T11:40:34.993Z,17.93
2018-02-22T11:43:03.361Z,18.30
2018-02-22T11:45:31.692Z,16.17
2018-02-22T11:47:59.266Z,17.53
2018-02-22T11:50:26.877Z,16.73
2018-02-22T11:52:54.448Z,16.10
2018-02-22T11:55:22.066Z,17.37
2018-02-22T11:57:49.659Z,17.53
2018-02-22T12:00:17.252Z,19.90
2018-02-22T12:02:44.831Z,17.30
2018-02-22T12:05:12.435Z,16.27
2018-02-22T12:07:40.022Z,19.37
2018-02-22T12:10:07.608Z,17.37
2018-02-22T12:12:35.311Z,18.63
2018-02-22T12:15:03.648Z,16.53
2018-02-22T12:17:31.239Z,16.00
2018-02-22T12:19:59.620Z,15.17
2018-02-22T12:22:27.974Z,14.80
2018-02-22T12:24:55.539Z,14.00
2018-02-22T12:27:23.130Z,13.80
2018-02-22T12:29:51.476Z,13.80
2018-02-22T12:32:19.082Z,13.63
2018-02-22T12:34:46.658Z,15.00
2018-02-22T12:37:14.252Z,15.30
2018-02-22T12:39:41.870Z,14.60
2018-02-22T12:42:09.437Z,15.50
2018-02-22T12:44:37.018Z,13.17
2018-02-22T12:47:04.584Z,13.37
2018-02-22T12:49:32.203Z,15.43
2018-02-22T12:51:59.772Z,15.30
2018-02-22T12:54:27.347Z,15.83
2018-02-22T12:56:54.934Z,14.93
2018-02-22T12:59:23.492Z,14.50
2018-02-22T13:01:51.101Z,13.23
2018-02-22T13:04:19.448Z,15.47
2018-02-22T13:06:47.038Z,13.33
2018-02-22T13:09:15.403Z,13.93
2018-02-22T13:11:42.989Z,13.70
2018-02-22T13:14:11.355Z,14.70
2018-02-22T13:16:39.698Z,16.07
2018-02-22T13:19:07.270Z,15.03
2018-02-22T13:21:34.871Z,14.80
2018-02-22T13:24:02.457Z,13.80
2018-02-22T13:26:30.609Z,15.27
2018-02-22T13:28:58.190Z,14.23
2018-02-22T13:31:25.775Z,15.50
2018-02-22T13:34:05.276Z,16.53
2018-02-22T13:36:32.889Z,15.07
2018-02-22T13:39:07.142Z,16.07
2018-02-22T13:41:34.716Z,14.87
2018-02-22T13:44:14.148Z,14.50
2018-02-22T13:46:41.734Z,15.53
2018-02-22T13:49:21.300Z,14.37
2018-02-22T13:51:48.870Z,15.27
2018-02-22T13:54:16.476Z,15.30
2018-02-22T13:56:55.944Z,15.10
2018-02-22T13:59:23.522Z,14.80
2018-02-22T14:02:03.050Z,14.33
2018-02-22T14:04:30.620Z,14.00
2018-02-22T14:06:58.226Z,14.33
2018-02-22T14:09:25.808Z,14.20
2018-02-22T14:11:53.477Z,15.00
2018-02-22T14:14:21.034Z,13.13
2018-02-22T14:16:48.612Z,13.83
2018-02-22T14:19:16.210Z,14.80
2018-02-22T14:21:44.573Z,14.27
2018-02-22T14:24:12.192Z,12.97
2018-02-22T14:26:39.783Z,14.30
2018-02-22T14:29:07.373Z,14.40
2018-02-22T14:31:35.733Z,14.00
2018-02-22T14:34:03.304Z,13.07
2018-02-22T14:36:32.427Z,12.77
2018-02-22T14:39:00.059Z,14.67
2018-02-22T14:41:28.440Z,14.43
2018-02-22T14:43:56.794Z,15.90
2018-02-22T14:46:24.429Z,15.20
2018-02-22T14:48:52.016Z,14.00
2018-02-22T14:51:19.601Z,13.30
2018-02-22T14:53:47.974Z,14.63
2018-02-22T14:56:16.298Z,15.30
2018-02-22T14:58:43.860Z,15.73
2018-02-22T15:01:11.453Z,14.33
2018-02-22T15:03:39.062Z,14.03
2018-02-22T15:06:06.622Z,15.30
2018-02-22T15:08:34.176Z,14.93
2018-02-22T15:11:01.784Z,14.10
2018-02-22T15:13:29.353Z,15.10
2018-02-22T15:15:56.949Z,15.40
2018-02-22T15:18:24.539Z,15.50
2018-02-22T15:20:52.179Z,13.57
2018-02-22T15:23:19.749Z,14.30
2018-02-22T15:25:47.307Z,14.03
2018-02-22T15:28:14.901Z,13.67
2018-02-22T15:30:42.458Z,14.90
2018-02-22T15:33:10.032Z,13.00
2018-02-22T15:35:37.622Z,13.00
2018-02-22T15:38:05.995Z,14.23
2018-02-22T15:40:34.362Z,14.20
2018-02-22T15:43:01.927Z,12.77
2018-02-22T15:45:30.282Z,15.37
2018-02-22T15:47:57.847Z,14.50
2018-02-22T15:50:25.436Z,14.40
2018-02-22T15:52:53.803Z,16.00
2018-02-22T15:55:22.174Z,11.93
2018-02-22T15:57:49.763Z,12.13
2018-02-22T16:00:17.340Z,12.23
2018-02-22T16:02:44.918Z,12.33
2018-02-22T16:05:13.271Z,11.80
2018-02-22T16:07:40.867Z,14.33
2018-02-22T16:10:08.460Z,13.17
2018-02-22T16:12:36.910Z,12.57
2018-02-22T16:15:04.517Z,15.33
2018-02-22T16:17:32.092Z,14.77
2018-02-22T16:19:59.695Z,14.33
2018-02-22T16:22:27.263Z,13.70
2018-02-22T16:24:54.832Z,12.43
2018-02-22T16:27:22.428Z,14.60
2018-02-22T16:29:49.986Z,11.60
2018-02-22T16:32:17.573Z,11.70
2018-02-22T16:34:45.135Z,11.87
2018-02-22T16:37:12.694Z,11.80
2018-02-22T16:39:40.280Z,10.87
2018-02-22T16:42:07.848Z,12.40
2018-02-22T16:44:35.429Z,11.57
2018-02-22T16:47:03.769Z,11.73
2018-02-22T16:49:31.341Z,12.13
2018-02-22T16:51:58.894Z,11.23
2018-02-22T16:54:26.529Z,11.90
2018-02-22T16:56:54.100Z,13.10
2018-02-22T16:59:21.683Z,11.80
2018-02-22T17:01:49.292Z,11.20
2018-02-22T17:04:16.847Z,17.90
2018-02-22T17:06:44.434Z,13.70
2018-02-22T17:09:11.993Z,12.07
2018-02-22T17:11:39.581Z,12.57
2018-02-22T17:14:07.170Z,11.17
2018-02-22T17:16:35.532Z,10.43
2018-02-22T17:19:03.871Z,12.67
2018-02-22T17:21:31.474Z,13.40
2018-02-22T17:23:59.816Z,12.33
2018-02-22T17:26:33.149Z,12.70
2018-02-22T17:29:07.070Z,13.57
2018-02-22T17:31:41.091Z,14.53
2018-02-22T17:34:08.676Z,18.30
2018-02-22T17:36:42.046Z,17.10
2018-02-22T17:42:21.293Z,14.27
2018-02-22T17:44:49.877Z,13.00
2018-02-22T17:47:17.445Z,12.97
2018-02-22T17:49:45.036Z,13.83
2018-02-22T17:52:13.390Z,13.37
2018-02-22T17:54:40.975Z,12.87
2018-02-22T17:57:08.546Z,13.60
2018-02-22T17:59:36.156Z,12.10
2018-02-22T18:02:04.488Z,12.43
2018-02-22T18:04:32.051Z,13.40
2018-02-22T18:06:59.659Z,13.03
2018-02-22T18:09:27.239Z,14.33
2018-02-22T18:11:54.828Z,12.73
2018-02-22T18:14:22.396Z,11.50
2018-02-22T18:16:49.968Z,12.17
2018-02-22T18:19:18.345Z,12.90
2018-02-22T18:21:45.902Z,11.73
2018-02-22T18:24:13.507Z,10.60
2018-02-22T18:26:41.068Z,11.80
2018-02-22T18:29:08.655Z,12.63
2018-02-22T18:31:36.229Z,10.30
2018-02-22T18:34:03.831Z,11.97
2018-02-22T18:36:31.423Z,11.27
2018-02-22T18:39:04.786Z,10.90
2018-02-22T18:44:45.752Z,10.70
2018-02-22T18:49:47.696Z,10.30
2018-02-22T18:52:15.302Z,11.03
2018-02-22T18:54:43.644Z,11.77
2018-02-22T18:57:11.246Z,10.90
2018-02-22T18:59:39.590Z,10.67
2018-02-22T19:02:07.163Z,11.30
2018-02-22T19:04:34.781Z,10.60
2018-02-22T19:07:02.338Z,11.07
2018-02-22T19:09:29.929Z,11.80
2018-02-22T19:11:57.535Z,10.57
2018-02-22T19:14:25.111Z,10.50
2018-02-22T19:16:52.714Z,11.93
2018-02-22T19:19:20.295Z,10.40
2018-02-22T19:21:47.908Z,11.67
2018-02-22T19:24:15.496Z,10.87
2018-02-22T19:26:43.077Z,10.43
2018-02-22T19:29:11.474Z,11.43
2018-02-22T19:31:39.807Z,9.50
2018-02-22T19:34:07.403Z,9.87
2018-02-22T19:36:35.734Z,10.70
2018-02-22T19:39:03.284Z,11.30
2018-02-22T19:41:30.988Z,12.30
2018-02-22T19:43:58.587Z,10.57
2018-02-22T19:46:26.144Z,10.33
2018-02-22T19:48:53.741Z,10.57
2018-02-22T19:51:21.368Z,10.80
2018-02-22T19:53:48.959Z,9.90
2018-02-22T19:56:16.551Z,10.77
2018-02-22T19:58:44.137Z,9.10
2018-02-22T20:01:11.693Z,10.53
2018-02-22T20:03:40.047Z,9.43
2018-02-22T20:06:07.617Z,9.83
2018-02-22T20:08:35.962Z,11.07
2018-02-22T20:11:03.529Z,10.13
2018-02-22T20:13:31.090Z,9.40
2018-02-22T20:15:58.757Z,10.43
2018-02-22T20:18:27.102Z,10.90
2018-02-22T20:20:54.726Z,10.10
2018-02-22T20:23:23.072Z,9.00
2018-02-22T20:25:50.640Z,10.97
2018-02-22T20:28:18.229Z,10.20
2018-02-22T20:30:46.572Z,10.13
2018-02-22T20:33:14.156Z,9.80
2018-02-22T20:35:42.506Z,10.13
2018-02-22T20:38:10.135Z,11.00
2018-02-22T20:40:37.705Z,10.60
2018-02-22T20:43:05.298Z,10.03
2018-02-22T20:45:32.850Z,11.13
2018-02-22T20:48:00.445Z,10.93
2018-02-22T20:50:28.034Z,9.23
2018-02-22T20:53:01.381Z,9.47
2018-02-22T20:55:31.796Z,12.00
2018-02-22T20:57:59.383Z,12.23
2018-02-22T21:00:27.756Z,9.37
2018-02-22T21:02:56.102Z,11.23
2018-02-22T21:05:23.770Z,11.97
2018-02-22T21:07:52.119Z,10.47
2018-02-22T21:10:19.698Z,10.47
2018-02-22T21:12:47.270Z,10.17
2018-02-22T21:15:14.880Z,11.80
2018-02-22T21:17:42.464Z,9.80
2018-02-22T21:20:10.070Z,10.57
2018-02-22T21:22:38.426Z,11.33
2018-02-22T21:25:06.082Z,12.47
2018-02-22T21:27:33.697Z,11.10
2018-02-22T21:30:01.265Z,10.50
2018-02-22T21:35:02.647Z,14.07
2018-02-22T21:37:30.267Z,13.67
2018-02-22T21:39:58.666Z,12.13
2018-02-22T21:42:26.239Z,12.97
2018-02-22T21:44:53.804Z,11.47
2018-02-22T21:47:21.402Z,13.40
2018-02-22T21:49:48.951Z,10.23
2018-02-22T21:52:16.505Z,12.77
2018-02-22T21:54:44.119Z,11.60
2018-02-22T21:57:11.734Z,10.90
2018-02-22T21:59:39.339Z,13.67
2018-02-22T22:02:06.912Z,13.53
2018-02-22T22:04:34.511Z,11.47
2018-02-22T22:07:02.074Z,11.10
2018-02-22T22:09:29.695Z,10.47
2018-02-22T22:11:57.319Z,9.67
2018-02-22T22:14:25.654Z,10.03
2018-02-22T22:16:53.218Z,11.80
2018-02-22T22:19:20.838Z,11.23
2018-02-22T22:21:48.403Z,9.40
2018-02-22T22:24:15.972Z,11.20
2018-02-22T22:26:43.608Z,10.80
2018-02-22T22:29:11.211Z,9.63
2018-02-22T22:31:38.769Z,9.90
2018-02-22T22:34:06.401Z,11.40
2018-02-22T22:36:33.961Z,10.80
2018-02-22T22:39:01.534Z,10.50
2018-02-22T22:41:29.151Z,10.23
2018-02-22T22:43:56.720Z,10.40
2018-02-22T22:46:25.039Z,10.40
2018-02-22T22:48:52.633Z,10.40
2018-02-22T22:51:20.210Z,10.33
2018-02-22T22:53:47.798Z,10.97
2018-02-22T22:56:15.367Z,11.03
2018-02-22T22:58:42.949Z,12.53
2018-02-22T23:01:10.558Z,9.10
2018-02-22T23:03:38.910Z,9.17
2018-02-22T23:06:06.486Z,9.60
2018-02-22T23:08:34.111Z,10.70
2018-02-22T23:11:01.688Z,10.67
2018-02-22T23:13:29.266Z,10.10
2018-02-22T23:15:56.885Z,9.27
2018-02-22T23:18:24.453Z,9.70
2018-02-22T23:20:52.039Z,10.33
2018-02-22T23:23:19.635Z,10.90
2018-02-22T23:25:47.190Z,10.10
2018-02-22T23:28:14.787Z,10.27
2018-02-22T23:30:42.358Z,9.10
2018-02-22T23:33:09.966Z,9.60
2018-02-22T23:35:38.308Z,9.47
2018-02-22T23:38:05.867Z,7.70
2018-02-22T23:40:33.508Z,9.60
2018-02-22T23:43:01.148Z,10.30
2018-02-22T23:45:28.737Z,9.47
2018-02-22T23:47:56.333Z,8.40
2018-02-22T23:50:24.700Z,9.23
2018-02-22T23:52:52.313Z,9.77
2018-02-22T23:55:19.888Z,8.57
2018-02-22T23:57:47.485Z,9.17
